Boulevard, CA (91905)

10:22 PM PST on December 25, 2014 (GMT -0800)
Tierra Del Sol | Change Station
CLOSE
Current Station
Personal Weather Station
Location: Boulevard, CA
Elevation: 3710 ft
Nearby Weather Stations

Elev 3710 ft 32.61 °N, 116.33 °W | Updated 8 minutes ago

Clear
Clear
36.0 °F
Feels Like 36 °F
N
0.0
Wind Variable Wind from West
Gusts 2.0 mph

Today
High -- | Low -- °F
--% Chance of Precip.
Yesterday
High -- | Low -- °F
Precip. -- in
6:45 AM 4:45 PM
Waxing Crescent, 23% visible
Pressure 29.86 in
Visibility -9999.0 miles
Clouds
Windchill 36 °F
Dew Point 22 °F
Humidity 57%
Rainfall 0.02 in
Snow Depth Not available.
UV Not available.
Pollen 6.00 out of 12
Air Quality Not available.
Flu Activity Not available.
METAR KCZZ 260552Z AUTO 06004KT 00/M02 A2988 RMK AO1 SLP111 T00001017 10106 20000 52014

More Conditions Fewer Conditions

Pressure 29.86 in
Visibility -9999.0 miles
Clouds
Windchill 36 °F
Dew Point 22 °F
Humidity 57%
Rainfall 0.02 in
Snow Depth Not available.
UV Not available.
Pollen 6.00 out of 12
Air Quality Not available.
Flu Activity Not available.
METAR KCZZ 260552Z AUTO 06004KT 00/M02 A2988 RMK AO1 SLP111 T00001017 10106 20000 52014

More Conditions Fewer Conditions

10-Day Weather Forecast

Almanac

Astronomy

Dec. 25, 2014 Rise Set
Actual Time
Civil Twilight
Nautical Twilight
Astronomical Twilight
Moon
Length of Visible Light
Length of Day
Tomorrow will be .
, % of the Moon is Illuminated

Today's Extremes

State Highs State Lows

Community

WunderPhotos

Upload Photos

1,780,556 photos uploaded!

WunderBlogs® & News

Nearby

Air Quality

  Air Quality AQ Index Pollutant
Not available.

Snow Depth

Station Depth Elevation

Earthquake Activity

City Distance Mag. Time & Date
Minimum magnitude displayed is 2.5.

Coastal Water Temperatures

Place Temperature

Nearby Weather Stations